Margaret — WDC3267 — position and weather

sailwx.info

Track history (hours):
 
Tides and Currents Weather Stations Pressure Air Temp Water Temp Dewpoint Dewpoint Depression Visibility Wind Speed Wind Dir Waves Ship Positions

Margaret

Owner: Cooper Marine & Timberlands Corporation, Mobile, AL. More information available from US FCC via Universal Licensing System and Coast Guard Vessel Documentation Center.

Last reported at 2015-Aug-15 17:33 UTC. Time now 2015-Sep-01 16:15 UTC.
Position N 29°54' W 090°07'.
Warning: this ship's position is 16 days out of date.

; draft 9 m.

Type: Towing. MMSI: 367004940.

Date/timePositionNaut miles runAvg speedWind from/ knotsBaromVisibWave heightAir tempDewpointWater temp
2015-Aug-15 17:33N 29°54' W 090°07'3 1.2
2015-Aug-15 15:23N 29°53' W 090°04'2 2.1
2015-Aug-15 14:28N 29°55' W 090°05'2 1.7
2015-Aug-15 13:27N 29°54' W 090°07'2 1.6
2015-Aug-15 12:11N 29°55' W 090°05'3 4.1
2015-Aug-15 11:33N 29°57' W 090°03'2 1.5
2015-Aug-15 10:25N 29°58' W 090°02'1 0.7
2015-Aug-15 09:33N 29°59' W 090°01'0 0.1
2015-Aug-15 08:24N 29°59' W 090°01'1 1.1
2015-Aug-15 07:33N 29°60' W 090°01'0 0.0
2015-Aug-15 06:30N 29°60' W 090°01'0 0.0
2015-Aug-15 05:30N 29°60' W 090°01'0 0.0
2015-Aug-15 04:33N 29°60' W 090°01'0 0.0
2015-Aug-15 03:27N 29°60' W 090°01'0 0.0
2015-Aug-15 02:32N 29°60' W 090°01'0 0.0
2015-Aug-15 01:33N 29°60' W 090°01'0 0.0
2015-Aug-15 00:31N 29°60' W 090°01'0 0.0
2015-Aug-14 23:33N 29°60' W 090°01'0 0.0
2015-Aug-14 22:33N 29°60' W 090°01'0 0.0
2015-Aug-14 21:31N 29°60' W 090°01'0 0.0
2015-Aug-14 20:33N 29°60' W 090°01'0 0.0
2015-Aug-14 19:31N 29°60' W 090°01'0 0.0
2015-Aug-14 11:14N 29°60' W 090°01'0 0.0
2015-Aug-14 10:23N 29°60' W 090°01'0 0.0
2015-Aug-14 09:30N 29°60' W 090°01'0 0.0
2015-Aug-14 08:32N 29°60' W 090°01'0 0.0
2015-Aug-14 07:21N 29°60' W 090°01'0 0.0
2015-Aug-14 06:28N 29°60' W 090°01'0 0.0
2015-Aug-14 05:32N 29°60' W 090°01'0 0.0
2015-Aug-14 04:33N 29°60' W 090°01'  
2015-Aug-10 01:32N 30°24' W 086°52'6 5.7
2015-Aug-10 00:33N 30°24' W 086°45'8 5.7
2015-Aug-09 23:10N 30°24' W 086°36'4 5.5
2015-Aug-09 22:31N 30°25' W 086°32'4 4.3
2015-Aug-09 21:34N 30°26' W 086°28'1 0.6
2015-Aug-09 20:34N 30°26' W 086°27'5 5.3
2015-Aug-09 19:33N 30°26' W 086°21'4 0.7
2015-Aug-09 13:11N 30°26' W 086°16'3 4.5
2015-Aug-09 12:33N 30°26' W 086°19'22 4.0
2015-Aug-09 07:03N 30°24' W 086°44'2 4.4
2015-Aug-09 06:33N 30°24' W 086°47'5 4.6
2015-Aug-09 05:34N 30°24' W 086°52'  
Track history (hours):
 
Tides and Currents Weather Stations Pressure Air Temp Water Temp Dewpoint Dewpoint Depression Visibility Wind Speed Wind Dir Waves Ship Positions

Margaret

Owner: Cooper Marine & Timberlands Corporation, Mobile, AL. More information available from US FCC via Universal Licensing System and Coast Guard Vessel Documentation Center.

Last reported at 2015-Aug-15 17:33 UTC. Time now 2015-Sep-01 16:15 UTC.
Position N 29°54' W 090°07'.
Warning: this ship's position is 16 days out of date.

; draft 9 m.

Type: Towing. MMSI: 367004940.

Date/timePositionNaut miles runAvg speedWind from/ knotsBaromVisibWave heightAir tempDewpointWater temp
2015-Aug-15 17:33N 29°54' W 090°07'3 1.2
2015-Aug-15 15:23N 29°53' W 090°04'2 2.1
2015-Aug-15 14:28N 29°55' W 090°05'2 1.7
2015-Aug-15 13:27N 29°54' W 090°07'2 1.6
2015-Aug-15 12:11N 29°55' W 090°05'3 4.1
2015-Aug-15 11:33N 29°57' W 090°03'2 1.5
2015-Aug-15 10:25N 29°58' W 090°02'1 0.7
2015-Aug-15 09:33N 29°59' W 090°01'0 0.1
2015-Aug-15 08:24N 29°59' W 090°01'1 1.1
2015-Aug-15 07:33N 29°60' W 090°01'0 0.0
2015-Aug-15 06:30N 29°60' W 090°01'0 0.0
2015-Aug-15 05:30N 29°60' W 090°01'0 0.0
2015-Aug-15 04:33N 29°60' W 090°01'0 0.0
2015-Aug-15 03:27N 29°60' W 090°01'0 0.0
2015-Aug-15 02:32N 29°60' W 090°01'0 0.0
2015-Aug-15 01:33N 29°60' W 090°01'0 0.0
2015-Aug-15 00:31N 29°60' W 090°01'0 0.0
2015-Aug-14 23:33N 29°60' W 090°01'0 0.0
2015-Aug-14 22:33N 29°60' W 090°01'0 0.0
2015-Aug-14 21:31N 29°60' W 090°01'0 0.0
2015-Aug-14 20:33N 29°60' W 090°01'0 0.0
2015-Aug-14 19:31N 29°60' W 090°01'0 0.0
2015-Aug-14 11:14N 29°60' W 090°01'0 0.0
2015-Aug-14 10:23N 29°60' W 090°01'0 0.0
2015-Aug-14 09:30N 29°60' W 090°01'0 0.0
2015-Aug-14 08:32N 29°60' W 090°01'0 0.0
2015-Aug-14 07:21N 29°60' W 090°01'0 0.0
2015-Aug-14 06:28N 29°60' W 090°01'0 0.0
2015-Aug-14 05:32N 29°60' W 090°01'0 0.0
2015-Aug-14 04:33N 29°60' W 090°01'  
2015-Aug-10 01:32N 30°24' W 086°52'6 5.7
2015-Aug-10 00:33N 30°24' W 086°45'8 5.7
2015-Aug-09 23:10N 30°24' W 086°36'4 5.5
2015-Aug-09 22:31N 30°25' W 086°32'4 4.3
2015-Aug-09 21:34N 30°26' W 086°28'1 0.6
2015-Aug-09 20:34N 30°26' W 086°27'5 5.3
2015-Aug-09 19:33N 30°26' W 086°21'4 0.7
2015-Aug-09 13:11N 30°26' W 086°16'3 4.5
2015-Aug-09 12:33N 30°26' W 086°19'22 4.0
2015-Aug-09 07:03N 30°24' W 086°44'2 4.4
2015-Aug-09 06:33N 30°24' W 086°47'5 4.6
2015-Aug-09 05:34N 30°24' W 086°52'  

Dump ship's entire track history